createdAt,value
2023-05-25T00:01:49.149Z,101376.72
2023-05-25T00:04:18.631Z,101387.56
2023-05-25T00:06:47.398Z,101387.22
2023-05-25T00:09:15.007Z,101388.53
2023-05-25T00:11:42.568Z,101388.56
2023-05-25T00:14:10.142Z,101370.88
2023-05-25T00:16:37.961Z,101377.91
2023-05-25T00:19:10.476Z,101372.91
2023-05-25T00:21:41.401Z,101372.91
2023-05-25T00:24:09.537Z,101374.22
2023-05-25T00:26:37.160Z,101369.22
2023-05-25T00:29:04.972Z,101369.91
2023-05-25T00:31:33.557Z,101370.41
2023-05-25T00:34:01.261Z,101372.56
2023-05-25T00:36:30.080Z,101368.88
2023-05-25T00:38:57.632Z,101369.56
2023-05-25T00:41:26.303Z,101367.06
2023-05-25T00:43:53.833Z,101373.06
2023-05-25T00:46:22.361Z,101361.94
2023-05-25T00:48:50.041Z,101368.91
2023-05-25T00:51:17.593Z,101370.91
2023-05-25T00:53:46.466Z,101369.25
2023-05-25T00:56:16.508Z,101365.56
2023-05-25T00:58:44.110Z,101365.91
2023-05-25T01:01:12.724Z,101364.59
2023-05-25T01:03:41.457Z,101368.59
2023-05-25T01:06:11.962Z,101365.28
2023-05-25T01:08:41.790Z,101379.25
2023-05-25T01:11:12.734Z,101368.94
2023-05-25T01:13:41.870Z,101374.09
2023-05-25T01:16:10.527Z,101373.94
2023-05-25T01:18:41.747Z,101375.94
2023-05-25T01:21:13.989Z,101377.59
2023-05-25T01:23:44.124Z,101377.25
2023-05-25T01:26:14.860Z,101381.59
2023-05-25T01:28:46.429Z,101371.59
2023-05-25T01:31:15.829Z,101376.75
2023-05-25T01:33:44.074Z,101384.25
2023-05-25T01:36:12.947Z,101384.59
2023-05-25T01:38:40.853Z,101385.56
2023-05-25T01:41:08.403Z,101380.91
2023-05-25T01:43:36.021Z,101378.44
2023-05-25T01:46:09.339Z,101384.25
2023-05-25T01:48:43.113Z,101384.91
2023-05-25T01:51:19.279Z,101382.25
2023-05-25T01:53:50.206Z,101384.59
2023-05-25T01:56:18.207Z,101390.44
2023-05-25T01:58:46.614Z,101390.25
2023-05-25T02:01:15.881Z,101391.56
2023-05-25T02:03:44.741Z,101395.25
2023-05-25T02:06:13.584Z,101397.91
2023-05-25T02:08:41.085Z,101390.25
2023-05-25T02:11:08.647Z,101390.56
2023-05-25T02:13:36.236Z,101388.25
2023-05-25T02:16:03.771Z,101391.59
2023-05-25T02:18:31.286Z,101388.56
2023-05-25T02:20:58.783Z,101381.25
2023-05-25T02:23:27.651Z,101381.25
2023-05-25T02:25:56.027Z,101377.94
2023-05-25T02:28:23.559Z,101374.22
2023-05-25T02:30:51.272Z,101378.75
2023-05-25T02:33:20.224Z,101370.56
2023-05-25T02:35:47.766Z,101364.25
2023-05-25T02:38:15.625Z,101363.91
2023-05-25T02:40:44.459Z,101365.59
2023-05-25T02:43:11.943Z,101365.09
2023-05-25T02:45:39.450Z,101363.59
2023-05-25T02:48:07.005Z,101362.25
2023-05-25T02:50:34.536Z,101364.91
2023-05-25T02:53:02.034Z,101362.09
2023-05-25T02:55:29.958Z,101370.09
2023-05-25T02:57:59.964Z,101363.75
2023-05-25T03:00:27.545Z,101366.25
2023-05-25T03:02:55.053Z,101378.72
2023-05-25T03:05:22.571Z,101375.56
2023-05-25T03:07:50.150Z,101374.88
2023-05-25T03:10:17.678Z,101375.53
2023-05-25T03:12:45.269Z,101371.88
2023-05-25T03:15:14.188Z,101371.41
2023-05-25T03:17:41.711Z,101382.53
2023-05-25T03:20:10.689Z,101385.28
2023-05-25T03:22:38.287Z,101390.13
2023-05-25T03:25:06.612Z,101388.78
2023-05-25T03:27:34.123Z,101388.09
2023-05-25T03:30:02.254Z,101403.09
2023-05-25T03:32:32.302Z,101389.44
2023-05-25T03:35:00.352Z,101389.78
2023-05-25T03:37:27.961Z,101389.78
2023-05-25T03:39:55.500Z,101387.78
2023-05-25T03:42:23.150Z,101383.09
2023-05-25T03:44:50.688Z,101388.59
2023-05-25T03:47:18.231Z,101394.44
2023-05-25T03:49:47.106Z,101399.38
2023-05-25T03:52:14.655Z,101398.84
2023-05-25T03:54:42.156Z,101401.72
2023-05-25T03:57:09.674Z,101406.72
2023-05-25T03:59:37.180Z,101403.81
2023-05-25T04:02:04.890Z,101407.31
2023-05-25T04:04:32.534Z,101405.50
2023-05-25T04:07:01.561Z,101404.88
2023-05-25T04:09:29.121Z,101413.31
2023-05-25T04:11:56.669Z,101416.84
2023-05-25T04:14:24.204Z,101415.03
2023-05-25T04:16:52.012Z,101412.50
2023-05-25T04:19:19.576Z,101416.03
2023-05-25T04:21:47.031Z,101422.19
2023-05-25T04:24:16.020Z,101419.00
2023-05-25T04:26:43.639Z,101420.19
2023-05-25T04:29:11.171Z,101427.69
2023-05-25T04:31:39.116Z,101430.03
2023-05-25T04:34:06.608Z,101444.63
2023-05-25T04:36:34.148Z,101448.81
2023-05-25T04:39:04.141Z,101452.31
2023-05-25T04:41:33.835Z,101454.81
2023-05-25T04:44:07.998Z,101445.56
2023-05-25T04:46:38.819Z,101450.88
2023-05-25T04:49:08.471Z,101449.38
2023-05-25T04:51:36.936Z,101460.19
2023-05-25T04:54:04.744Z,101458.75
2023-05-25T04:56:33.610Z,101455.44
2023-05-25T04:59:01.117Z,101462.75
2023-05-25T05:01:29.261Z,101460.41
2023-05-25T05:03:57.188Z,101464.75
2023-05-25T05:06:25.692Z,101459.09
2023-05-25T05:08:53.225Z,101468.28
2023-05-25T05:11:20.753Z,101467.63
2023-05-25T05:13:49.606Z,101471.47
2023-05-25T05:16:17.265Z,101473.16
2023-05-25T05:18:44.813Z,101483.16
2023-05-25T05:21:12.535Z,101475.19
2023-05-25T05:23:40.393Z,101484.66
2023-05-25T05:26:10.966Z,101487.00
2023-05-25T05:28:38.575Z,101494.00
2023-05-25T05:31:08.177Z,101499.34
2023-05-25T05:33:35.828Z,101494.88
2023-05-25T05:36:04.650Z,101497.53
2023-05-25T05:38:32.225Z,101495.00
2023-05-25T05:40:59.845Z,101501.34
2023-05-25T05:43:27.590Z,101497.84
2023-05-25T05:45:55.175Z,101503.16
2023-05-25T05:48:24.082Z,101509.84
2023-05-25T05:50:52.447Z,101508.16
2023-05-25T05:53:20.067Z,101506.53
2023-05-25T05:55:49.598Z,101501.16
2023-05-25T05:58:19.317Z,101507.47
2023-05-25T06:00:46.848Z,101515.13
2023-05-25T06:03:14.440Z,101509.09
2023-05-25T06:05:43.500Z,101511.38
2023-05-25T06:08:11.736Z,101506.22
2023-05-25T06:10:39.345Z,101511.38
2023-05-25T06:13:07.843Z,101509.53
2023-05-25T06:15:36.277Z,101516.34
2023-05-25T06:18:04.012Z,101521.69
2023-05-25T06:20:31.579Z,101521.34
2023-05-25T06:23:00.525Z,101528.81
2023-05-25T06:25:28.094Z,101522.91
2023-05-25T06:27:55.807Z,101525.06
2023-05-25T06:30:23.501Z,101515.56
2023-05-25T06:32:51.198Z,101515.47
2023-05-25T06:35:20.873Z,101513.06
2023-05-25T06:37:49.220Z,101512.63
2023-05-25T06:40:18.144Z,101517.16
2023-05-25T06:42:45.713Z,101516.47
2023-05-25T06:45:14.232Z,101518.75
2023-05-25T06:47:41.737Z,101524.22
2023-05-25T06:50:10.379Z,101516.94
2023-05-25T06:52:37.924Z,101516.41
2023-05-25T06:55:06.055Z,101523.06
2023-05-25T06:57:34.877Z,101516.72
2023-05-25T07:00:03.048Z,101523.72
2023-05-25T07:02:30.600Z,101517.28
2023-05-25T07:04:58.174Z,101518.78
2023-05-25T07:07:25.779Z,101524.47
2023-05-25T07:09:53.356Z,101527.84
2023-05-25T07:12:21.402Z,101526.06
2023-05-25T07:14:50.340Z,101525.53
2023-05-25T07:17:17.924Z,101529.88
2023-05-25T07:19:45.526Z,101527.31
2023-05-25T07:22:13.093Z,101523.25
2023-05-25T07:24:40.643Z,101512.38
2023-05-25T07:27:08.193Z,101526.78
2023-05-25T07:29:35.750Z,101517.66
2023-05-25T07:32:05.255Z,101521.25
2023-05-25T07:34:32.778Z,101516.19
2023-05-25T07:37:00.384Z,101517.16
2023-05-25T07:39:27.986Z,101514.06
2023-05-25T07:41:55.560Z,101516.47
2023-05-25T07:44:23.100Z,101520.88
2023-05-25T07:46:50.794Z,101521.81
2023-05-25T07:49:19.667Z,101521.81
2023-05-25T07:51:47.228Z,101526.84
2023-05-25T07:54:14.769Z,101514.44
2023-05-25T07:56:42.478Z,101510.81
2023-05-25T07:59:10.076Z,101509.47
2023-05-25T08:01:38.899Z,101507.94
2023-05-25T08:04:06.553Z,101503.84
2023-05-25T08:06:35.615Z,101507.56
2023-05-25T08:09:04.796Z,101510.88
2023-05-25T08:11:32.456Z,101500.91
2023-05-25T08:14:00.660Z,101508.06
2023-05-25T08:16:28.357Z,101501.63
2023-05-25T08:18:55.966Z,101509.69
2023-05-25T08:21:23.764Z,101513.88
2023-05-25T08:23:53.964Z,101514.47
2023-05-25T08:28:56.357Z,101509.56
2023-05-25T08:31:24.009Z,101512.47
2023-05-25T08:33:51.712Z,101511.38
2023-05-25T08:36:19.747Z,101515.47
2023-05-25T08:38:47.228Z,101518.06
2023-05-25T08:41:16.690Z,101510.44
2023-05-25T08:43:44.340Z,101513.59
2023-05-25T08:46:12.335Z,101519.91
2023-05-25T08:48:42.370Z,101514.59
2023-05-25T08:51:11.705Z,101519.59
2023-05-25T08:53:41.525Z,101522.75
2023-05-25T08:56:12.572Z,101524.47
2023-05-25T08:58:47.106Z,101517.50
2023-05-25T09:01:16.486Z,101521.03
2023-05-25T09:03:45.048Z,101505.97
2023-05-25T09:06:12.919Z,101510.09
2023-05-25T09:08:40.648Z,101516.28
2023-05-25T09:11:09.914Z,101508.84
2023-05-25T09:13:38.177Z,101506.56
2023-05-25T09:16:07.524Z,101507.25
2023-05-25T09:18:35.327Z,101513.63
2023-05-25T09:21:03.453Z,101519.88
2023-05-25T09:23:31.593Z,101519.25
2023-05-25T09:25:59.369Z,101523.78
2023-05-25T09:28:27.774Z,101527.13
2023-05-25T09:30:55.649Z,101522.13
2023-05-25T09:33:24.670Z,101524.88
2023-05-25T09:35:52.562Z,101533.88
2023-05-25T09:38:20.678Z,101527.50
2023-05-25T09:40:48.546Z,101533.47
2023-05-25T09:43:25.344Z,101522.72
2023-05-25T09:45:56.547Z,101528.13
2023-05-25T09:48:25.460Z,101525.44
2023-05-25T09:50:52.968Z,101528.41
2023-05-25T09:53:20.508Z,101527.34
2023-05-25T09:55:53.750Z,101531.50
2023-05-25T09:58:23.582Z,101524.47
2023-05-25T10:00:54.614Z,101519.91
2023-05-25T10:03:22.481Z,101522.44
2023-05-25T10:05:53.118Z,101521.38
2023-05-25T10:08:22.166Z,101527.41
2023-05-25T10:10:51.197Z,101527.22
2023-05-25T10:13:21.789Z,101523.50
2023-05-25T10:15:50.129Z,101523.28
2023-05-25T10:18:20.912Z,101524.09
2023-05-25T10:20:51.363Z,101520.81
2023-05-25T10:23:19.549Z,101520.59
2023-05-25T10:25:50.762Z,101523.06
2023-05-25T10:28:21.765Z,101518.13
2023-05-25T10:30:50.504Z,101522.69
2023-05-25T10:33:18.378Z,101515.44
2023-05-25T10:36:02.410Z,101524.53
2023-05-25T10:38:35.782Z,101519.16
2023-05-25T10:41:05.457Z,101521.44
2023-05-25T10:43:33.514Z,101517.72
2023-05-25T10:46:01.100Z,101515.84
2023-05-25T10:48:36.866Z,101517.06
2023-05-25T10:51:04.633Z,101503.81
2023-05-25T10:53:32.230Z,101511.66
2023-05-25T10:56:05.360Z,101492.38
2023-05-25T10:58:34.103Z,101508.31
2023-05-25T11:01:03.235Z,101507.91
2023-05-25T11:03:51.456Z,101494.22
2023-05-25T11:06:21.466Z,101497.28
2023-05-25T11:08:54.983Z,101501.84
2023-05-25T11:11:59.768Z,101493.13
2023-05-25T11:14:30.122Z,101487.91
2023-05-25T11:17:10.340Z,101490.72
2023-05-25T11:19:42.916Z,101488.97
2023-05-25T11:22:20.207Z,101494.09
2023-05-25T11:24:48.004Z,101502.59
2023-05-25T11:27:16.852Z,101487.97
2023-05-25T11:29:44.560Z,101492.72
2023-05-25T11:32:16.175Z,101487.53
2023-05-25T11:34:46.423Z,101474.47
2023-05-25T11:37:16.485Z,101480.69
2023-05-25T11:39:47.668Z,101473.16
2023-05-25T11:42:17.095Z,101476.47
2023-05-25T11:44:45.143Z,101463.59
2023-05-25T11:47:14.405Z,101468.56
2023-05-25T11:49:44.189Z,101469.59
2023-05-25T11:52:11.827Z,101470.09
2023-05-25T11:54:41.117Z,101463.94
2023-05-25T11:57:17.892Z,101466.38
2023-05-25T11:59:50.330Z,101453.16
2023-05-25T12:02:18.193Z,101457.56
2023-05-25T12:04:54.185Z,101458.13
2023-05-25T12:07:21.827Z,101469.28
2023-05-25T12:09:49.557Z,101463.50
2023-05-25T12:12:18.393Z,101459.16
2023-05-25T12:14:49.219Z,101460.41
2023-05-25T12:17:17.423Z,101457.22
2023-05-25T12:19:45.556Z,101449.53
2023-05-25T12:22:14.062Z,101458.19
2023-05-25T12:24:41.900Z,101451.03
2023-05-25T12:27:19.508Z,101446.78
2023-05-25T12:29:47.432Z,101452.88
2023-05-25T12:32:14.960Z,101442.84
2023-05-25T12:34:42.880Z,101442.06
2023-05-25T12:37:18.933Z,101431.44
2023-05-25T12:39:46.614Z,101444.00
2023-05-25T12:42:15.992Z,101439.63
2023-05-25T12:44:47.281Z,101431.69
2023-05-25T12:47:16.449Z,101427.91
2023-05-25T12:49:45.592Z,101429.91
2023-05-25T12:52:32.402Z,101426.06
2023-05-25T12:55:00.146Z,101421.47
2023-05-25T12:57:36.113Z,101427.03
2023-05-25T13:00:06.372Z,101423.94
2023-05-25T13:02:33.927Z,101431.91
2023-05-25T13:05:57.467Z,101418.31
2023-05-25T13:08:25.189Z,101427.09
2023-05-25T13:10:52.659Z,101433.50
2023-05-25T13:13:20.354Z,101429.38
2023-05-25T13:15:49.197Z,101416.13
2023-05-25T13:18:16.696Z,101427.03
2023-05-25T13:20:45.336Z,101421.16
2023-05-25T13:23:14.868Z,101411.66
2023-05-25T13:25:42.464Z,101408.16
2023-05-25T13:28:09.997Z,101402.06
2023-05-25T13:30:37.539Z,101405.97
2023-05-25T13:33:06.486Z,101410.09
2023-05-25T13:35:58.018Z,101400.47
2023-05-25T13:38:25.921Z,101397.38
2023-05-25T13:40:53.465Z,101401.97
2023-05-25T13:43:20.959Z,101402.63
2023-05-25T13:45:48.562Z,101399.09
2023-05-25T13:48:17.933Z,101399.81
2023-05-25T13:50:45.935Z,101401.84
2023-05-25T13:53:14.073Z,101401.94
2023-05-25T13:55:41.584Z,101404.88
2023-05-25T13:58:09.261Z,101397.31
2023-05-25T14:00:36.824Z,101395.41
2023-05-25T14:03:04.426Z,101379.88
2023-05-25T14:05:33.329Z,101385.22
2023-05-25T14:08:02.564Z,101382.19
2023-05-25T14:10:30.083Z,101391.50
2023-05-25T14:12:57.608Z,101388.31
2023-05-25T14:15:25.381Z,101382.91
2023-05-25T14:17:54.542Z,101395.16
2023-05-25T14:20:25.949Z,101394.00
2023-05-25T14:22:55.198Z,101387.28
2023-05-25T14:25:22.729Z,101379.69
2023-05-25T14:27:50.286Z,101376.84
2023-05-25T14:30:17.942Z,101373.44
2023-05-25T14:32:45.584Z,101376.91
2023-05-25T14:35:13.120Z,101376.81
2023-05-25T14:37:41.483Z,101380.09
2023-05-25T14:40:11.918Z,101370.00
2023-05-25T14:42:39.462Z,101374.72
2023-05-25T14:45:10.803Z,101370.94
2023-05-25T14:47:39.242Z,101374.72
2023-05-25T14:50:07.813Z,101374.75
2023-05-25T14:52:36.441Z,101369.81
2023-05-25T14:55:04.069Z,101370.63
2023-05-25T14:57:32.942Z,101362.03
2023-05-25T15:00:00.574Z,101360.13
2023-05-25T15:02:28.301Z,101369.91
2023-05-25T15:04:55.864Z,101364.63
2023-05-25T15:07:23.396Z,101363.44
2023-05-25T15:09:50.983Z,101363.56
2023-05-25T15:12:18.488Z,101364.97
2023-05-25T15:14:47.408Z,101375.69
2023-05-25T15:17:14.954Z,101372.19
2023-05-25T15:19:42.438Z,101370.97
2023-05-25T15:22:09.958Z,101376.53
2023-05-25T15:24:37.477Z,101371.00
2023-05-25T15:27:06.439Z,101374.03
2023-05-25T15:29:33.957Z,101368.41
2023-05-25T15:32:02.982Z,101368.63
2023-05-25T15:34:30.677Z,101373.22
2023-05-25T15:36:58.163Z,101371.69
2023-05-25T15:39:27.564Z,101372.13
2023-05-25T15:41:55.037Z,101363.44
2023-05-25T15:44:22.551Z,101365.44
2023-05-25T15:46:50.243Z,101361.34
2023-05-25T15:49:19.887Z,101361.44
2023-05-25T15:51:47.410Z,101354.25
2023-05-25T15:54:15.185Z,101353.06
2023-05-25T15:56:42.852Z,101360.63
2023-05-25T15:59:12.107Z,101362.97
2023-05-25T16:01:39.664Z,101358.88
2023-05-25T16:04:07.251Z,101354.84
2023-05-25T16:06:36.297Z,101357.22
2023-05-25T16:09:04.356Z,101354.00
2023-05-25T16:11:33.915Z,101357.44
2023-05-25T16:14:01.461Z,101346.34
2023-05-25T16:16:29.578Z,101347.31
2023-05-25T16:18:57.283Z,101349.53
2023-05-25T16:21:29.667Z,101338.25
2023-05-25T16:23:58.490Z,101345.06
2023-05-25T16:26:26.968Z,101346.94
2023-05-25T16:28:54.507Z,101348.72
2023-05-25T16:31:22.065Z,101351.66
2023-05-25T16:33:49.591Z,101346.94
2023-05-25T16:36:17.187Z,101362.50
2023-05-25T16:38:45.696Z,101351.41
2023-05-25T16:41:14.657Z,101343.66
2023-05-25T16:43:42.170Z,101345.88
2023-05-25T16:46:09.757Z,101354.72
2023-05-25T16:48:37.277Z,101344.56
2023-05-25T16:51:04.985Z,101345.16
2023-05-25T16:53:32.460Z,101347.41
2023-05-25T16:56:00.134Z,101349.72
2023-05-25T16:58:29.023Z,101340.66
2023-05-25T17:00:59.507Z,101337.41
2023-05-25T17:03:27.220Z,101344.50
2023-05-25T17:05:54.886Z,101336.16
2023-05-25T17:08:22.978Z,101348.44
2023-05-25T17:10:50.733Z,101343.31
2023-05-25T17:13:18.264Z,101337.16
2023-05-25T17:15:47.387Z,101341.88
2023-05-25T17:18:15.293Z,101348.41
2023-05-25T17:20:42.920Z,101339.84
2023-05-25T17:23:10.745Z,101349.13
2023-05-25T17:25:39.274Z,101338.88
2023-05-25T17:28:07.265Z,101343.84
2023-05-25T17:30:34.932Z,101347.41
2023-05-25T17:33:03.864Z,101352.47
2023-05-25T17:35:38.194Z,101349.31
2023-05-25T17:38:05.994Z,101348.13
2023-05-25T17:40:33.610Z,101350.19
2023-05-25T17:43:01.197Z,101346.66
2023-05-25T17:45:28.892Z,101351.09
2023-05-25T17:47:57.362Z,101356.97
2023-05-25T17:50:28.792Z,101358.81
2023-05-25T17:52:56.513Z,101353.59
2023-05-25T17:55:26.982Z,101364.44
2023-05-25T17:57:54.614Z,101359.31
2023-05-25T18:00:28.508Z,101366.63
2023-05-25T18:02:56.248Z,101363.78
2023-05-25T18:05:24.110Z,101363.47
2023-05-25T18:07:53.128Z,101359.28
2023-05-25T18:10:20.783Z,101372.22
2023-05-25T18:12:52.209Z,101383.09
2023-05-25T18:15:19.940Z,101373.63
2023-05-25T18:17:47.495Z,101380.56
2023-05-25T18:20:15.192Z,101385.78
2023-05-25T18:22:42.762Z,101372.59
2023-05-25T18:25:11.797Z,101367.69
2023-05-25T18:27:39.305Z,101382.94
2023-05-25T18:30:08.446Z,101370.31
2023-05-25T18:32:36.178Z,101373.25
2023-05-25T18:35:03.896Z,101377.66
2023-05-25T18:37:34.214Z,101389.50
2023-05-25T18:40:01.844Z,101388.78
2023-05-25T18:42:30.782Z,101389.00
2023-05-25T18:44:58.363Z,101386.19
2023-05-25T18:47:26.545Z,101381.19
2023-05-25T18:49:54.221Z,101387.75
2023-05-25T18:52:22.367Z,101387.25
2023-05-25T18:54:49.921Z,101394.56
2023-05-25T18:57:17.530Z,101396.72
2023-05-25T18:59:46.929Z,101402.78
2023-05-25T19:02:14.502Z,101406.56
2023-05-25T19:04:42.004Z,101403.69
2023-05-25T19:07:09.522Z,101406.41
2023-05-25T19:09:37.024Z,101408.47
2023-05-25T19:12:06.982Z,101400.84
2023-05-25T19:14:34.489Z,101409.16
2023-05-25T19:17:03.361Z,101408.13
2023-05-25T19:19:30.891Z,101409.59
2023-05-25T19:21:58.442Z,101416.06
2023-05-25T19:24:25.925Z,101415.84
2023-05-25T19:26:53.410Z,101422.50
2023-05-25T19:29:21.171Z,101415.06
2023-05-25T19:31:48.862Z,101426.72
2023-05-25T19:34:18.300Z,101424.88
2023-05-25T19:36:46.253Z,101422.16
2023-05-25T19:39:14.812Z,101436.47
2023-05-25T19:41:42.357Z,101440.22
2023-05-25T19:44:10.471Z,101446.88
2023-05-25T19:46:39.737Z,101454.72
2023-05-25T19:49:07.292Z,101451.63
2023-05-25T19:51:37.175Z,101451.81
2023-05-25T19:54:04.796Z,101471.47
2023-05-25T19:56:32.414Z,101467.31
2023-05-25T19:59:00.222Z,101474.97
2023-05-25T20:01:27.806Z,101471.06
2023-05-25T20:03:55.499Z,101475.19
2023-05-25T20:06:23.053Z,101474.97
2023-05-25T20:08:51.908Z,101473.91
2023-05-25T20:11:19.448Z,101476.78
2023-05-25T20:13:48.097Z,101488.75
2023-05-25T20:16:15.668Z,101491.00
2023-05-25T20:18:44.540Z,101481.22
2023-05-25T20:21:12.171Z,101490.97
2023-05-25T20:23:39.791Z,101488.25
2023-05-25T20:26:08.677Z,101489.47
2023-05-25T20:28:36.206Z,101491.28
2023-05-25T20:31:03.792Z,101487.75
2023-05-25T20:33:31.315Z,101490.22
2023-05-25T20:35:58.865Z,101488.13
2023-05-25T20:38:26.407Z,101487.69
2023-05-25T20:40:53.954Z,101490.75
2023-05-25T20:43:22.909Z,101503.94
2023-05-25T20:45:50.592Z,101498.75
2023-05-25T20:48:18.177Z,101499.53
2023-05-25T20:50:45.901Z,101513.63
2023-05-25T20:53:18.355Z,101512.31
2023-05-25T20:55:47.278Z,101511.06
2023-05-25T20:58:15.215Z,101512.25
2023-05-25T21:00:46.311Z,101519.66
2023-05-25T21:03:13.937Z,101521.72
2023-05-25T21:05:41.631Z,101515.47
2023-05-25T21:08:09.312Z,101519.94
2023-05-25T21:10:37.146Z,101516.19
2023-05-25T21:13:04.739Z,101517.81
2023-05-25T21:15:32.358Z,101516.03
2023-05-25T21:18:03.350Z,101525.91
2023-05-25T21:20:31.061Z,101530.44
2023-05-25T21:22:58.717Z,101532.47
2023-05-25T21:25:26.204Z,101528.13
2023-05-25T21:27:55.444Z,101532.41
2023-05-25T21:30:24.629Z,101528.00
2023-05-25T21:32:52.285Z,101530.41
2023-05-25T21:35:21.295Z,101531.38
2023-05-25T21:37:48.960Z,101535.66
2023-05-25T21:40:16.683Z,101532.34
2023-05-25T21:42:44.180Z,101537.06
2023-05-25T21:45:11.732Z,101542.53
2023-05-25T21:47:39.322Z,101549.28
2023-05-25T21:52:37.710Z,101557.44
2023-05-25T21:55:05.957Z,101556.53
2023-05-25T21:57:33.464Z,101552.00
2023-05-25T22:00:01.033Z,101562.63
2023-05-25T22:02:28.730Z,101563.00
2023-05-25T22:04:56.292Z,101563.75
2023-05-25T22:07:23.849Z,101574.84
2023-05-25T22:09:52.703Z,101568.66
2023-05-25T22:12:21.100Z,101572.34
2023-05-25T22:14:48.800Z,101567.28
2023-05-25T22:17:18.788Z,101555.72
2023-05-25T22:19:59.049Z,101563.75
2023-05-25T22:22:33.888Z,101566.53
2023-05-25T22:25:02.847Z,101567.88
2023-05-25T22:27:30.395Z,101581.75
2023-05-25T22:29:58.011Z,101575.09
2023-05-25T22:32:26.837Z,101575.28
2023-05-25T22:34:54.426Z,101574.81
2023-05-25T22:37:22.066Z,101582.59
2023-05-25T22:39:49.905Z,101572.25
2023-05-25T22:42:18.804Z,101584.63
2023-05-25T22:44:46.522Z,101586.44
2023-05-25T22:47:14.323Z,101585.16
2023-05-25T22:49:44.434Z,101577.50
2023-05-25T22:52:12.757Z,101582.38
2023-05-25T22:54:40.678Z,101580.72
2023-05-25T22:57:10.527Z,101580.34
2023-05-25T22:59:39.411Z,101582.00
2023-05-25T23:02:07.429Z,101584.41
2023-05-25T23:04:36.300Z,101578.75
2023-05-25T23:07:03.939Z,101579.25
2023-05-25T23:09:31.483Z,101580.81
2023-05-25T23:11:58.975Z,101566.56
2023-05-25T23:14:26.826Z,101571.38
2023-05-25T23:16:55.804Z,101572.28
2023-05-25T23:19:25.772Z,101578.31
2023-05-25T23:21:54.230Z,101575.44
2023-05-25T23:24:21.766Z,101572.28
2023-05-25T23:26:49.598Z,101580.69
2023-05-25T23:29:17.130Z,101576.53
2023-05-25T23:31:44.636Z,101587.53
2023-05-25T23:34:13.580Z,101590.19
2023-05-25T23:36:42.716Z,101585.50
2023-05-25T23:39:10.225Z,101590.56
2023-05-25T23:41:37.822Z,101581.22
2023-05-25T23:44:05.522Z,101578.91
2023-05-25T23:46:33.091Z,101576.19
2023-05-25T23:49:00.680Z,101583.72
2023-05-25T23:51:29.541Z,101581.94
2023-05-25T23:53:57.060Z,101583.16
2023-05-25T23:56:24.728Z,101586.09
2023-05-25T23:58:52.514Z,101578.63
